Aérodrome :
LOGIN :

S'inscrire | Disclaimer

   EN    FR    IT 

 










Légende :    VFR   VFR Marginal   IFR   IFR Intensif   IFR Très Intensif
Visi : 
Plafond : 
>= 8 km
>= 3000ft
5 à 8 km
1000 à 3000 ft
1500m à 5 km
500 à 1000 ft
800 à 1500m
200 à 500 ft
< 800m
< 200 ft
Symboles :   Orages  Brouillard  Fortes neiges  Fortes précipitations  Vent > 20 kt
SIGMETs :   Divers  Orages  Givrage  Turbulence  Onde Orograph.  Cendres Volcan.







- Altitude de l'aérodrome : 18 ft


LIPC - Cervia AFB Ravenna

DERNIER METAR :
  • 181755Z 07017KT 8000 -RA SCT015 BKN022 06/04 Q1020 RMK OVC VIS MIN 8000 WIND THR11 07018KT WIND THR29 /////KT WHT

METARs EXPIRÉS :
  • 181655Z 08019KT 4000 -RA BR OVC020 06/04 Q1019 RMK OVC VIS MIN 4000 WIND THR11 07017KT WIND THR29 /////KT GRN
  • 181555Z 07018G28KT 3500 -RA BR SCT012 BKN020 06/04 Q1019

TAF TAF LIPC
Valide du 18 à 18h jusqu'au 19 à 03h UTC


181700Z 1818/1903 07015KT 1500 RA BR SCT010 BKN015
TEMPO 1818/1824 07020G30KT 3000 RA BR
Pas de NOTAMs connus pour ce terrain.



MET'MAP, la Météo Aéronautique d'un coup d'oeil ! - Copyright ORBIFLY Décembre 2007 - Disclaimer

ORBIFLY MET'MAP TEAM :

Programmation & Développement : Alexandra Zaïnal
Conception & Développement : Baudouin d'Aumeries
Co-Programmation & Développement : Marc-Olivier Méhu
Soutien technique & logistique : Manuel Goepfert

Contact : metmap@orbifly.com




SOURCES & CREDITS :

   NOAA